createdAt,value
2018-12-11T00:00:02.116Z,6.96
2018-12-11T00:05:07.150Z,6.98
2018-12-11T00:10:11.830Z,6.95
2018-12-11T00:15:16.805Z,7.03
2018-12-11T00:20:21.424Z,7.08
2018-12-11T00:25:25.915Z,7.12
2018-12-11T00:30:31.509Z,7.24
2018-12-11T00:35:36.152Z,7.33
2018-12-11T00:40:40.359Z,7.35
2018-12-11T00:45:45.283Z,7.30
2018-12-11T00:50:50.735Z,7.22
2018-12-11T00:55:55.799Z,7.05
2018-12-11T01:06:25.745Z,7.23
2018-12-11T01:11:31.252Z,7.14
2018-12-11T01:16:36.423Z,7.18
2018-12-11T01:21:54.334Z,7.25
2018-12-11T01:26:59.072Z,7.23
2018-12-11T01:32:04.274Z,7.09
2018-12-11T01:37:08.784Z,7.01
2018-12-11T01:42:13.550Z,6.89
2018-12-11T01:47:17.769Z,6.78
2018-12-11T01:52:22.002Z,6.77
2018-12-11T01:57:26.164Z,6.63
2018-12-11T02:07:49.332Z,6.58
2018-12-11T02:12:59.899Z,6.64
2018-12-11T02:18:04.189Z,6.62
2018-12-11T02:23:09.212Z,6.65
2018-12-11T02:28:13.433Z,6.73
2018-12-11T02:33:18.716Z,6.86
2018-12-11T02:38:23.410Z,6.95
2018-12-11T02:43:29.583Z,7.06
2018-12-11T02:48:34.187Z,6.97
2018-12-11T02:53:38.844Z,6.93
2018-12-11T02:58:43.816Z,6.87
2018-12-11T03:03:48.837Z,6.80
2018-12-11T03:14:14.592Z,6.72
2018-12-11T03:19:19.577Z,6.64
2018-12-11T03:24:25.229Z,6.63
2018-12-11T03:34:52.569Z,6.56
2018-12-11T03:39:57.285Z,6.48
2018-12-11T03:45:04.001Z,6.48
2018-12-11T03:50:15.927Z,6.43
2018-12-11T04:00:47.922Z,6.40
2018-12-11T04:10:59.197Z,6.34
2018-12-11T04:16:05.193Z,6.42
2018-12-11T04:21:10.426Z,6.40
2018-12-11T04:31:39.796Z,6.48
2018-12-11T04:36:44.310Z,6.36
2018-12-11T04:41:49.252Z,6.39
2018-12-11T04:46:53.419Z,6.35
2018-12-11T04:51:58.162Z,6.32
2018-12-11T04:57:03.236Z,6.33
2018-12-11T05:02:07.468Z,6.23
2018-12-11T05:07:12.823Z,6.26
2018-12-11T05:17:37.309Z,6.63
2018-12-11T05:22:41.948Z,6.73
2018-12-11T05:27:46.559Z,6.52
2018-12-11T05:32:50.909Z,6.40
2018-12-11T05:37:56.112Z,6.33
2018-12-11T05:43:00.962Z,6.49
2018-12-11T05:48:06.948Z,6.63
2018-12-11T05:53:14.180Z,6.82
2018-12-11T06:03:47.561Z,7.03
2018-12-11T06:08:52.609Z,6.88
2018-12-11T06:13:57.277Z,6.86
2018-12-11T06:19:02.572Z,6.75
2018-12-11T06:24:08.135Z,6.64
2018-12-11T06:29:12.358Z,6.64
2018-12-11T06:34:18.517Z,6.61
2018-12-11T06:39:23.666Z,6.50
2018-12-11T06:44:27.838Z,6.53
2018-12-11T06:49:32.117Z,6.62
2018-12-11T06:54:37.891Z,6.67
2018-12-11T06:59:43.036Z,6.63
2018-12-11T07:04:48.189Z,6.65
2018-12-11T07:09:53.072Z,6.63
2018-12-11T07:14:57.594Z,6.62
2018-12-11T07:20:02.297Z,6.62
2018-12-11T07:25:07.003Z,6.63
2018-12-11T07:30:12.665Z,6.59
2018-12-11T07:40:43.686Z,6.39
2018-12-11T07:45:49.743Z,6.54
2018-12-11T07:50:53.984Z,6.54
2018-12-11T07:56:00.379Z,6.64
2018-12-11T08:01:05.410Z,6.68
2018-12-11T08:06:10.474Z,6.79
2018-12-11T08:11:15.054Z,6.87
2018-12-11T08:16:20.877Z,6.91
2018-12-11T08:21:26.393Z,6.86
2018-12-11T08:26:30.962Z,6.73
2018-12-11T08:31:35.689Z,6.62
2018-12-11T08:36:40.222Z,6.59
2018-12-11T08:41:45.251Z,6.67
2018-12-11T08:52:11.185Z,7.11
2018-12-11T08:57:16.277Z,6.95
2018-12-11T09:02:22.743Z,6.96
2018-12-11T09:07:27.664Z,6.94
2018-12-11T09:12:33.221Z,6.88
2018-12-11T09:17:39.372Z,7.13
2018-12-11T09:22:44.309Z,7.21
2018-12-11T09:27:54.088Z,7.17
2018-12-11T09:32:58.641Z,7.18
2018-12-11T09:38:05.421Z,7.32
2018-12-11T09:43:10.482Z,7.54
2018-12-11T09:48:15.523Z,7.54
2018-12-11T09:53:21.622Z,7.44
2018-12-11T09:58:26.534Z,7.49
2018-12-11T10:03:32.404Z,7.64
2018-12-11T10:08:37.528Z,7.69
2018-12-11T10:13:42.948Z,7.78
2018-12-11T10:24:15.379Z,8.04
2018-12-11T10:29:19.909Z,8.13
2018-12-11T10:34:25.564Z,8.20
2018-12-11T10:39:31.657Z,8.27
2018-12-11T10:50:04.820Z,8.48
2018-12-11T10:55:10.079Z,8.57
2018-12-11T11:00:51.328Z,8.63
2018-12-11T11:05:55.557Z,8.77
2018-12-11T11:11:00.129Z,8.89
2018-12-11T11:16:04.430Z,8.98
2018-12-11T11:21:09.001Z,8.98
2018-12-11T11:26:13.291Z,9.08
2018-12-11T11:31:18.030Z,9.12
2018-12-11T11:36:22.406Z,9.22
2018-12-11T11:41:27.080Z,9.24
2018-12-11T11:46:31.304Z,9.31
2018-12-11T11:51:36.034Z,9.42
2018-12-11T11:56:40.677Z,9.51
2018-12-11T12:01:45.262Z,9.60
2018-12-11T12:06:50.291Z,9.53
2018-12-11T12:11:55.522Z,9.47
2018-12-11T12:22:23.508Z,9.30
2018-12-11T12:27:28.503Z,9.51
2018-12-11T12:32:34.210Z,9.71
2018-12-11T12:37:40.140Z,9.74
2018-12-11T12:42:47.370Z,9.65
2018-12-11T12:53:15.491Z,9.58
2018-12-11T12:58:22.051Z,7.71
2018-12-11T13:03:31.346Z,9.52
2018-12-11T13:08:36.489Z,9.54
2018-12-11T13:13:42.097Z,9.53
2018-12-11T13:18:47.380Z,9.43
2018-12-11T13:23:52.579Z,9.45
2018-12-11T13:28:59.242Z,9.49
2018-12-11T13:34:04.770Z,9.50
2018-12-11T13:39:11.705Z,9.34
2018-12-11T13:44:16.922Z,9.26
2018-12-11T13:49:22.097Z,9.18
2018-12-11T13:54:27.699Z,9.27
2018-12-11T14:04:55.190Z,9.33
2018-12-11T14:10:00.423Z,9.23
2018-12-11T14:15:06.365Z,9.07
2018-12-11T14:20:14.163Z,8.91
2018-12-11T14:25:19.894Z,8.79
2018-12-11T14:30:25.785Z,8.76
2018-12-11T14:40:58.999Z,8.56
2018-12-11T14:46:05.858Z,8.52
2018-12-11T14:51:10.612Z,8.44
2018-12-11T14:56:16.666Z,8.48
2018-12-11T15:01:21.534Z,8.53
2018-12-11T15:06:25.971Z,8.48
2018-12-11T15:11:30.595Z,8.36
2018-12-11T15:16:35.527Z,8.26
2018-12-11T15:21:40.036Z,8.13
2018-12-11T15:26:45.722Z,8.02
2018-12-11T15:31:50.282Z,7.94
2018-12-11T15:36:54.545Z,7.86
2018-12-11T15:41:59.985Z,7.70
2018-12-11T15:47:04.487Z,7.73
2018-12-11T15:52:10.015Z,7.71
2018-12-11T15:57:14.581Z,7.77
2018-12-11T16:02:19.540Z,7.81
2018-12-11T16:07:25.270Z,7.78
2018-12-11T16:12:28.749Z,7.71
2018-12-11T16:17:31.744Z,7.87
2018-12-11T16:22:34.826Z,8.05
2018-12-11T16:27:38.078Z,8.12
2018-12-11T16:32:41.243Z,8.13
2018-12-11T16:37:44.480Z,8.15
2018-12-11T16:42:47.443Z,8.22
2018-12-11T16:47:50.416Z,8.28
2018-12-11T16:52:53.384Z,8.31
2018-12-11T16:57:56.388Z,8.27
2018-12-11T17:02:59.420Z,8.33
2018-12-11T17:08:02.432Z,8.30
2018-12-11T17:13:05.459Z,8.26
2018-12-11T17:18:08.563Z,8.31
2018-12-11T17:23:11.531Z,8.38
2018-12-11T17:28:14.609Z,8.33
2018-12-11T17:33:17.681Z,8.36
2018-12-11T17:38:20.735Z,8.37
2018-12-11T17:43:23.824Z,8.31
2018-12-11T17:48:27.587Z,8.35
2018-12-11T17:53:30.886Z,8.33
2018-12-11T17:58:33.891Z,8.32
2018-12-11T18:03:36.878Z,8.33
2018-12-11T18:08:39.899Z,8.31
2018-12-11T18:13:42.877Z,8.32
2018-12-11T18:18:45.864Z,8.33
2018-12-11T18:23:49.009Z,8.21
2018-12-11T18:28:52.208Z,8.22
2018-12-11T18:33:55.336Z,8.22
2018-12-11T18:38:58.377Z,8.22
2018-12-11T18:44:01.384Z,8.25
2018-12-11T18:49:04.560Z,8.25
2018-12-11T18:54:07.885Z,8.26
2018-12-11T18:59:10.961Z,8.25
2018-12-11T19:04:14.055Z,8.21
2018-12-11T19:09:17.222Z,8.17
2018-12-11T19:14:20.442Z,8.19
2018-12-11T19:19:23.455Z,8.08
2018-12-11T19:24:58.739Z,8.06
2018-12-11T19:30:01.752Z,7.99
2018-12-11T19:35:05.361Z,7.99
2018-12-11T19:40:09.313Z,8.03
2018-12-11T19:45:12.512Z,8.03
2018-12-11T19:50:16.200Z,8.07
2018-12-11T19:55:19.293Z,7.95
2018-12-11T20:00:22.331Z,7.96
2018-12-11T20:05:25.317Z,7.96
2018-12-11T20:10:28.354Z,7.97
2018-12-11T20:15:31.347Z,7.92
2018-12-11T20:20:34.370Z,7.93
2018-12-11T20:30:59.587Z,7.90
2018-12-11T20:36:03.232Z,7.94
2018-12-11T20:41:07.084Z,7.93
2018-12-11T20:51:36.726Z,7.92
2018-12-11T20:56:39.729Z,7.84
2018-12-11T21:01:42.737Z,7.83
2018-12-11T21:06:45.697Z,7.82
2018-12-11T21:11:48.635Z,7.77
2018-12-11T21:16:51.608Z,7.73
2018-12-11T21:21:54.658Z,7.75
2018-12-11T21:26:57.665Z,7.74
2018-12-11T21:32:00.687Z,7.75
2018-12-11T21:37:03.760Z,7.75
2018-12-11T21:47:25.733Z,7.81
2018-12-11T21:52:29.319Z,7.76
2018-12-11T21:57:33.982Z,7.74
2018-12-11T22:08:03.344Z,7.69
2018-12-11T22:13:14.326Z,7.73
2018-12-11T22:18:23.200Z,7.66
2018-12-11T22:23:26.774Z,7.66
2018-12-11T22:28:30.026Z,7.59
2018-12-11T22:33:35.011Z,7.63
2018-12-11T22:44:00.726Z,7.63
2018-12-11T22:49:03.852Z,7.64
2018-12-11T22:54:07.185Z,7.69
2018-12-11T23:04:34.668Z,7.64
2018-12-11T23:09:37.657Z,7.60
2018-12-11T23:14:40.626Z,7.59
2018-12-11T23:19:43.603Z,7.60
2018-12-11T23:24:46.810Z,7.61
2018-12-11T23:29:49.786Z,7.58
2018-12-11T23:34:53.894Z,7.49
2018-12-11T23:50:43.835Z,7.48
2018-12-11T23:55:47.078Z,7.52
